createdAt,value
2019-02-14T00:01:53.320Z,3.83
2019-02-14T00:05:55.710Z,1.50
2019-02-14T00:09:58.100Z,5.30
2019-02-14T00:14:00.457Z,0.57
2019-02-14T00:18:02.871Z,0.57
2019-02-14T00:22:05.442Z,0.40
2019-02-14T00:26:07.872Z,1.87
2019-02-14T00:30:10.439Z,3.03
2019-02-14T00:34:12.861Z,1.67
2019-02-14T00:38:15.180Z,3.60
2019-02-14T00:42:17.601Z,0.83
2019-02-14T00:46:20.179Z,2.93
2019-02-14T00:50:22.534Z,3.33
2019-02-14T00:54:25.159Z,2.47
2019-02-14T00:58:27.802Z,0.87
2019-02-14T01:02:31.681Z,3.00
2019-02-14T01:06:34.263Z,3.07
2019-02-14T01:10:36.610Z,0.20
2019-02-14T01:14:39.250Z,0.20
2019-02-14T01:18:41.580Z,0.27
2019-02-14T01:22:44.327Z,1.50
2019-02-14T01:26:46.649Z,0.70
2019-02-14T01:30:49.078Z,0.20
2019-02-14T01:34:51.422Z,2.67
2019-02-14T01:38:53.853Z,1.70
2019-02-14T01:42:56.175Z,0.10
2019-02-14T01:46:58.585Z,0.00
2019-02-14T01:51:00.984Z,0.80
2019-02-14T01:55:03.926Z,0.37
2019-02-14T01:59:06.353Z,0.20
2019-02-14T02:03:08.776Z,2.20
2019-02-14T02:07:11.210Z,1.03
2019-02-14T02:11:13.854Z,0.83
2019-02-14T02:15:16.714Z,0.33
2019-02-14T02:19:19.332Z,0.10
2019-02-14T02:23:21.653Z,0.10
2019-02-14T02:27:24.204Z,0.40
2019-02-14T02:31:26.546Z,1.70
2019-02-14T02:35:28.950Z,0.40
2019-02-14T02:39:31.309Z,1.13
2019-02-14T02:43:34.071Z,0.10
2019-02-14T02:47:36.388Z,0.30
2019-02-14T02:51:38.864Z,0.77
2019-02-14T02:55:42.939Z,0.10
2019-02-14T02:59:45.430Z,0.10
2019-02-14T03:03:47.870Z,0.10
2019-02-14T03:07:50.287Z,0.10
2019-02-14T03:11:52.601Z,0.93
2019-02-14T03:15:55.312Z,0.20
2019-02-14T03:19:57.614Z,0.63
2019-02-14T03:24:00.151Z,0.43
2019-02-14T03:28:02.508Z,0.10
2019-02-14T03:32:05.116Z,0.50
2019-02-14T03:36:07.453Z,0.47
2019-02-14T03:40:11.375Z,0.20
2019-02-14T03:44:13.694Z,0.43
2019-02-14T03:48:16.397Z,0.10
2019-02-14T03:52:18.725Z,0.40
2019-02-14T03:56:22.445Z,0.97
2019-02-14T04:00:24.865Z,0.20
2019-02-14T04:04:27.302Z,0.20
2019-02-14T04:08:29.749Z,0.10
2019-02-14T04:12:32.288Z,0.20
2019-02-14T04:16:34.866Z,3.30
2019-02-14T04:20:37.504Z,0.50
2019-02-14T04:24:40.003Z,0.30
2019-02-14T04:28:42.802Z,0.20
2019-02-14T04:32:46.240Z,0.77
2019-02-14T04:36:48.940Z,0.50
2019-02-14T04:40:51.310Z,0.80
2019-02-14T04:44:53.802Z,2.40
2019-02-14T04:48:56.150Z,0.20
2019-02-14T04:52:58.605Z,3.13
2019-02-14T04:57:00.971Z,1.10
2019-02-14T05:01:05.230Z,0.10
2019-02-14T05:05:11.235Z,0.67
2019-02-14T05:09:13.921Z,1.87
2019-02-14T05:13:16.329Z,0.50
2019-02-14T05:17:18.821Z,0.40
2019-02-14T05:21:21.173Z,0.60
2019-02-14T05:25:23.935Z,0.73
2019-02-14T05:29:29.758Z,0.50
2019-02-14T05:33:32.311Z,1.20
2019-02-14T05:37:34.652Z,0.67
2019-02-14T05:41:37.073Z,1.30
2019-02-14T05:45:39.392Z,1.00
2019-02-14T05:49:41.857Z,0.27
2019-02-14T05:53:44.198Z,0.83
2019-02-14T05:57:46.803Z,0.17
2019-02-14T06:01:49.163Z,1.17
2019-02-14T06:05:53.278Z,0.57
2019-02-14T06:09:55.616Z,0.30
2019-02-14T06:13:58.028Z,0.20
2019-02-14T06:18:00.398Z,0.33
2019-02-14T06:22:02.869Z,1.60
2019-02-14T06:26:05.218Z,0.40
2019-02-14T06:30:09.209Z,0.40
2019-02-14T06:34:11.571Z,2.00
2019-02-14T06:38:13.971Z,0.30
2019-02-14T06:42:16.298Z,0.50
2019-02-14T06:46:18.819Z,0.50
2019-02-14T06:50:22.453Z,0.77
2019-02-14T06:54:30.868Z,0.10
2019-02-14T06:58:34.767Z,0.30
2019-02-14T07:02:37.192Z,0.73
2019-02-14T07:06:39.543Z,1.37
2019-02-14T07:10:43.649Z,0.10
2019-02-14T07:14:46.014Z,1.07
2019-02-14T07:18:48.428Z,0.33
2019-02-14T07:22:50.778Z,2.20
2019-02-14T07:26:53.193Z,0.20
2019-02-14T07:30:55.554Z,0.20
2019-02-14T07:34:57.983Z,1.13
2019-02-14T07:39:00.373Z,0.77
2019-02-14T07:43:03.497Z,1.00
2019-02-14T07:47:05.828Z,0.87
2019-02-14T07:51:09.477Z,1.33
2019-02-14T07:55:12.054Z,2.00
2019-02-14T07:59:15.668Z,3.77
2019-02-14T08:03:18.051Z,0.50
2019-02-14T08:07:20.537Z,1.80
2019-02-14T08:11:23.211Z,0.33
2019-02-14T08:15:26.190Z,1.20
2019-02-14T08:19:28.532Z,2.43
2019-02-14T08:23:30.957Z,0.30
2019-02-14T08:27:33.339Z,1.23
2019-02-14T08:31:35.725Z,3.00
2019-02-14T08:35:38.157Z,0.30
2019-02-14T08:39:40.596Z,0.93
2019-02-14T08:43:42.906Z,0.70
2019-02-14T08:47:45.308Z,0.93
2019-02-14T08:51:47.699Z,1.80
2019-02-14T08:55:50.092Z,0.97
2019-02-14T08:59:52.412Z,0.20
2019-02-14T09:03:54.899Z,0.97
2019-02-14T09:07:57.251Z,0.53
2019-02-14T09:11:59.657Z,1.57
2019-02-14T09:16:01.984Z,0.87
2019-02-14T09:20:04.833Z,0.53
2019-02-14T09:24:07.189Z,0.63
2019-02-14T09:28:11.040Z,1.80
2019-02-14T09:32:13.556Z,2.10
2019-02-14T09:36:15.964Z,0.53
2019-02-14T09:40:18.407Z,1.70
2019-02-14T09:44:20.898Z,0.50
2019-02-14T09:48:24.217Z,1.60
2019-02-14T09:52:26.598Z,1.20
2019-02-14T09:56:29.018Z,1.27
2019-02-14T10:00:31.522Z,0.30
2019-02-14T10:04:33.834Z,1.53
2019-02-14T10:08:37.889Z,1.50
2019-02-14T10:12:40.290Z,0.83
2019-02-14T10:16:42.937Z,2.97
2019-02-14T10:20:45.289Z,1.53
2019-02-14T10:24:49.312Z,4.07
2019-02-14T10:28:51.661Z,6.73
2019-02-14T10:32:54.107Z,3.30
2019-02-14T10:36:58.629Z,2.73
2019-02-14T10:41:01.093Z,1.57
2019-02-14T10:45:03.509Z,2.20
2019-02-14T10:49:06.126Z,2.90
2019-02-14T10:53:08.450Z,1.23
2019-02-14T10:57:10.815Z,2.80
2019-02-14T11:01:13.143Z,2.30
2019-02-14T11:05:16.943Z,1.07
2019-02-14T11:09:19.313Z,2.57
2019-02-14T11:13:21.788Z,3.33
2019-02-14T11:17:24.275Z,4.53
2019-02-14T11:21:26.700Z,3.73
2019-02-14T11:25:31.611Z,4.00
2019-02-14T11:29:34.514Z,4.47
2019-02-14T11:33:36.824Z,2.00
2019-02-14T11:37:39.450Z,4.50
2019-02-14T11:41:41.969Z,10.20
2019-02-14T11:45:44.494Z,10.90
2019-02-14T11:49:46.855Z,6.00
2019-02-14T11:53:49.286Z,4.50
2019-02-14T11:57:51.634Z,8.27
2019-02-14T12:01:55.612Z,8.07
2019-02-14T12:05:58.130Z,5.37
2019-02-14T12:10:00.531Z,5.63
2019-02-14T12:14:02.915Z,10.97
2019-02-14T12:18:05.590Z,6.87
2019-02-14T12:22:07.886Z,9.53
2019-02-14T12:26:10.491Z,11.63
2019-02-14T12:30:14.998Z,8.40
2019-02-14T12:34:18.213Z,9.63
2019-02-14T12:38:20.565Z,9.03
2019-02-14T12:42:23.311Z,14.07
2019-02-14T12:46:26.638Z,17.17
2019-02-14T12:50:29.047Z,8.67
2019-02-14T12:54:31.376Z,12.23
2019-02-14T12:58:33.949Z,11.03
2019-02-14T13:02:36.288Z,15.47
2019-02-14T13:06:38.715Z,9.97
2019-02-14T13:10:41.043Z,22.30
2019-02-14T13:14:43.469Z,13.63
2019-02-14T13:18:45.828Z,13.93
2019-02-14T13:22:48.356Z,21.37
2019-02-14T13:26:50.683Z,15.07
2019-02-14T13:30:53.142Z,13.17
2019-02-14T13:34:55.439Z,16.13
2019-02-14T13:38:58.178Z,14.40
2019-02-14T13:43:00.502Z,12.80
2019-02-14T13:47:02.891Z,13.00
2019-02-14T13:51:05.507Z,6.33
2019-02-14T13:55:09.185Z,17.93
2019-02-14T13:59:11.512Z,9.70
2019-02-14T14:03:16.793Z,15.77
2019-02-14T14:07:19.144Z,10.97
2019-02-14T14:11:21.643Z,11.10
2019-02-14T14:15:24.063Z,12.80
2019-02-14T14:19:28.917Z,10.13
2019-02-14T14:23:30.478Z,16.17
2019-02-14T14:27:32.894Z,15.30
2019-02-14T14:31:35.249Z,12.73
2019-02-14T14:35:37.744Z,11.23
2019-02-14T14:39:47.575Z,11.17
2019-02-14T14:44:01.830Z,13.30
2019-02-14T14:48:04.173Z,8.43
2019-02-14T14:52:06.951Z,10.10
2019-02-14T14:56:09.497Z,16.07
2019-02-14T15:00:12.316Z,19.77
2019-02-14T15:04:14.732Z,20.03
2019-02-14T15:08:17.254Z,11.53
2019-02-14T15:12:19.571Z,12.30
2019-02-14T15:16:22.388Z,16.63
2019-02-14T15:20:25.083Z,18.20
2019-02-14T15:24:27.505Z,10.10
2019-02-14T15:28:29.838Z,24.73
2019-02-14T15:32:32.288Z,19.10
2019-02-14T15:36:34.826Z,19.70
2019-02-14T15:40:38.350Z,115.20
2019-02-14T15:44:40.674Z,24.57
2019-02-14T15:48:43.345Z,16.77
2019-02-14T15:52:45.703Z,21.83
2019-02-14T15:56:48.141Z,19.60
2019-02-14T16:00:51.889Z,26.83
2019-02-14T16:04:54.927Z,24.47
2019-02-14T16:08:57.782Z,28.17
2019-02-14T16:13:02.063Z,14.57
2019-02-14T16:17:04.507Z,12.90
2019-02-14T16:21:07.912Z,18.57
2019-02-14T16:25:11.932Z,9.03
2019-02-14T16:29:14.355Z,11.33
2019-02-14T16:33:16.884Z,17.33
2019-02-14T16:37:19.366Z,9.97
2019-02-14T16:41:21.694Z,14.77
2019-02-14T16:45:24.209Z,13.10
2019-02-14T16:49:27.072Z,13.70
2019-02-14T16:53:29.731Z,12.63
2019-02-14T16:57:33.245Z,14.63
2019-02-14T17:01:35.651Z,10.63
2019-02-14T17:05:38.217Z,13.13
2019-02-14T17:09:40.668Z,8.43
2019-02-14T17:13:43.000Z,19.30
2019-02-14T17:17:45.633Z,11.40
2019-02-14T17:21:47.954Z,21.13
2019-02-14T17:25:50.406Z,16.87
2019-02-14T17:29:52.949Z,27.47
2019-02-14T17:33:55.376Z,18.43
2019-02-14T17:37:57.734Z,16.57
2019-02-14T17:42:01.391Z,24.20
2019-02-14T17:46:03.782Z,1.80
2019-02-14T17:50:08.824Z,19.57
2019-02-14T17:54:11.265Z,14.27
2019-02-14T17:58:13.932Z,27.37
2019-02-14T18:02:17.969Z,25.67
2019-02-14T18:06:20.591Z,19.40
2019-02-14T18:10:22.956Z,15.73
2019-02-14T18:14:25.449Z,22.10
2019-02-14T18:18:27.828Z,20.00
2019-02-14T18:22:30.380Z,14.03
2019-02-14T18:26:32.781Z,17.53
2019-02-14T18:30:35.361Z,14.63
2019-02-14T18:34:37.833Z,17.93
2019-02-14T18:38:40.491Z,15.80
2019-02-14T18:42:43.299Z,20.77
2019-02-14T18:46:45.734Z,20.13
2019-02-14T18:50:48.223Z,16.10
2019-02-14T18:54:50.722Z,19.87
2019-02-14T18:58:53.137Z,13.40
2019-02-14T19:02:55.566Z,17.90
2019-02-14T19:06:58.576Z,8.83
2019-02-14T19:11:02.117Z,3.43
2019-02-14T19:15:04.573Z,11.97
2019-02-14T19:19:07.615Z,10.67
2019-02-14T19:23:09.990Z,13.97
2019-02-14T19:27:12.490Z,11.80
2019-02-14T19:31:14.965Z,9.50
2019-02-14T19:35:23.052Z,10.57
2019-02-14T19:39:23.372Z,8.87
2019-02-14T19:43:28.149Z,10.57
2019-02-14T19:47:33.651Z,11.37
2019-02-14T19:51:37.204Z,9.83
2019-02-14T19:55:39.563Z,8.63
2019-02-14T19:59:42.016Z,10.63
2019-02-14T20:03:46.113Z,10.70
2019-02-14T20:07:48.691Z,6.67
2019-02-14T20:11:51.020Z,8.00
2019-02-14T20:15:53.550Z,6.97
2019-02-14T20:19:55.895Z,7.40
2019-02-14T20:23:58.301Z,5.43
2019-02-14T20:28:00.865Z,8.13
2019-02-14T20:32:03.530Z,7.53
2019-02-14T20:36:05.860Z,5.17
2019-02-14T20:40:08.990Z,10.57
2019-02-14T20:44:11.413Z,7.60
2019-02-14T20:48:13.825Z,4.87
2019-02-14T20:52:16.340Z,6.30
2019-02-14T20:56:21.572Z,5.13
2019-02-14T21:00:32.453Z,7.27
2019-02-14T21:04:34.876Z,4.90
2019-02-14T21:08:37.195Z,6.13
2019-02-14T21:12:39.809Z,5.07
2019-02-14T21:16:42.156Z,4.57
2019-02-14T21:20:44.596Z,9.17
2019-02-14T21:24:48.048Z,4.97
2019-02-14T21:28:50.476Z,3.97
2019-02-14T21:32:52.874Z,4.90
2019-02-14T21:36:55.321Z,5.20
2019-02-14T21:40:57.677Z,4.53
2019-02-14T21:45:00.667Z,5.47
2019-02-14T21:49:04.695Z,7.03
2019-02-14T21:53:08.743Z,6.70
2019-02-14T21:57:11.201Z,9.37
2019-02-14T22:01:16.056Z,3.73
2019-02-14T22:05:24.567Z,5.97
2019-02-14T22:09:23.205Z,6.13
2019-02-14T22:13:25.635Z,8.00
2019-02-14T22:17:28.080Z,9.23
2019-02-14T22:21:30.400Z,4.10
2019-02-14T22:25:32.808Z,1.50
2019-02-14T22:29:35.282Z,5.60
2019-02-14T22:33:37.694Z,5.27
2019-02-14T22:37:40.303Z,6.50
2019-02-14T22:41:43.291Z,7.27
2019-02-14T22:45:45.755Z,1.03
2019-02-14T22:49:48.145Z,5.70
2019-02-14T22:53:50.829Z,6.43
2019-02-14T22:57:53.309Z,4.27
2019-02-14T23:01:55.779Z,2.00
2019-02-14T23:05:58.283Z,4.47
2019-02-14T23:10:00.626Z,5.27
2019-02-14T23:14:03.033Z,4.73
2019-02-14T23:18:05.559Z,3.27
2019-02-14T23:22:08.026Z,5.93
2019-02-14T23:26:10.473Z,4.27
2019-02-14T23:30:13.284Z,5.30
2019-02-14T23:34:15.716Z,2.40
2019-02-14T23:38:18.177Z,3.67
2019-02-14T23:42:20.629Z,3.63
2019-02-14T23:46:23.205Z,8.97
2019-02-14T23:50:25.542Z,4.30
2019-02-14T23:54:28.394Z,3.67
2019-02-14T23:58:30.775Z,3.13
